메인 페이지
METAR-TAF:

METAR-TAF

공항 :

라스베가스, 뉴멕시코, 미국

위도: 35-39-15N, 경도: 105-08-33W, 고도: 2096m

현재 날씨관측

예보는 35분 전, 21:53시(UTC)에 발표되었습니다.
남남서4kt
온도 31°C
습도 16%
기압 1024 hPa
시정: 16.1km
맑음

METAR: KLVS 132153Z AUTO 21004KT 10SM CLR 31/02 A3024 RMK AO2 SLP112 T03060017

시각: 16:28 (22:28 UTC)

예보

예보는 4 시간 59분 전, 17:29시(UTC)에 발표되었습니다.
예보 대상 시간: 13일 18시부터 14일 18시까지 (UTC)
동북동6kt
시정: 10km
고도 12000ft 상공 구름 조금
13일 2000시부터 (UTC)
남남서12kt, 순간 최대 풍속 20kt
시정: 10km
고도 13000ft 상공 구름 보통
14일 0200시부터 (UTC)
남남동8kt
시정: 10km
고도 13000ft 상공 구름 보통
14일 1730시부터 (UTC)
남동10kt, 순간 최대 풍속 20kt
시정: 10km
고도 7000ft 상공 구름 많음
시계 내 소나기,

TAF: KLVS 131729Z 1318/1418 07006KT P6SM FEW120 FM132000 20012G20KT P6SM SCT130 FM140200 16008KT P6SM SCT130 FM141730 14010G20KT P6SM VCSH BKN070

4,000개 이상의 공항 관측 자료 및 예보 (METAR 및 TAF 보고).

지도상에서 검색 가능한 기상관측소가 노란 점과 빨간 점으로 표시되어 있습니다.

기상관측소 명을 보려면 표시 위로 마우스를 이동하세요.

날씨 관측과 예보를 보려면 클릭하세요.

지도 변경 : 확대하려면 엑스 표시가 있는 녹색 버튼, 축소하려면 빼기 표시가 있는 녹색 버튼, 다음 페이지의 지도를 보려면 녹색 화살표를 클릭하세요.


METAR-TAF: